createdAt,value
2023-01-19T00:03:40.806Z,13.13
2023-01-19T00:08:46.075Z,14.23
2023-01-19T00:18:55.764Z,26.23
2023-01-19T00:23:58.878Z,17.70
2023-01-19T00:29:02.017Z,19.58
2023-01-19T00:34:07.844Z,16.00
2023-01-19T00:39:11.020Z,17.95
2023-01-19T00:44:14.264Z,23.02
2023-01-19T00:49:18.846Z,14.35
2023-01-19T00:54:22.003Z,17.30
2023-01-19T00:59:25.877Z,18.63
2023-01-19T01:04:30.425Z,18.65
2023-01-19T01:09:33.604Z,16.40
2023-01-19T01:14:36.927Z,17.95
2023-01-19T01:19:41.679Z,18.08
2023-01-19T01:24:44.957Z,16.60
2023-01-19T01:29:48.224Z,23.48
2023-01-19T01:34:52.773Z,21.60
2023-01-19T01:39:55.920Z,19.60
2023-01-19T01:45:00.972Z,19.08
2023-01-19T01:50:10.133Z,16.90
2023-01-19T01:55:14.679Z,17.90
2023-01-19T02:00:18.780Z,17.70
2023-01-19T02:05:27.334Z,15.02
2023-01-19T02:10:47.829Z,16.63
2023-01-19T02:15:52.920Z,16.38
2023-01-19T02:21:05.605Z,22.33
2023-01-19T02:26:12.703Z,21.60
2023-01-19T02:31:16.386Z,26.10
2023-01-19T02:36:23.997Z,18.55
2023-01-19T02:41:32.308Z,21.13
2023-01-19T02:46:35.869Z,18.95
2023-01-19T02:51:39.131Z,15.82
2023-01-19T02:57:18.517Z,14.35
2023-01-19T03:02:36.042Z,21.48
2023-01-19T03:07:50.550Z,16.58
2023-01-19T03:13:03.506Z,15.80
2023-01-19T03:18:11.989Z,15.25
2023-01-19T03:23:16.991Z,21.60
2023-01-19T03:28:24.246Z,14.82
2023-01-19T03:33:34.295Z,9.38
2023-01-19T03:38:39.607Z,9.52
2023-01-19T03:48:48.584Z,10.20
2023-01-19T03:53:51.801Z,9.60
2023-01-19T03:58:56.266Z,9.50
2023-01-19T04:04:01.574Z,12.05
2023-01-19T04:09:04.729Z,12.73
2023-01-19T04:14:07.840Z,12.52
2023-01-19T04:19:12.458Z,11.73
2023-01-19T04:24:15.563Z,11.50
2023-01-19T04:29:18.716Z,10.98
2023-01-19T04:34:23.253Z,15.27
2023-01-19T04:39:26.590Z,12.17
2023-01-19T04:44:29.817Z,11.10
2023-01-19T04:49:34.352Z,13.00
2023-01-19T04:54:37.553Z,10.90
2023-01-19T04:59:40.674Z,12.43
2023-01-19T05:04:45.341Z,9.45
2023-01-19T05:09:48.463Z,9.70
2023-01-19T05:14:51.629Z,8.05
2023-01-19T05:19:56.191Z,7.13
2023-01-19T05:24:59.363Z,6.97
2023-01-19T05:30:04.845Z,9.55
2023-01-19T05:35:10.889Z,9.93
2023-01-19T05:40:14.332Z,8.27
2023-01-19T05:45:17.583Z,8.25
2023-01-19T05:50:22.147Z,7.68
2023-01-19T05:55:25.271Z,7.47
2023-01-19T06:00:29.267Z,7.57
2023-01-19T06:05:34.135Z,7.25
2023-01-19T06:10:37.399Z,7.30
2023-01-19T06:15:40.563Z,6.88
2023-01-19T06:20:45.109Z,6.90
2023-01-19T06:25:50.282Z,7.67
2023-01-19T06:30:55.067Z,8.10
2023-01-19T06:35:59.655Z,7.72
2023-01-19T06:41:04.072Z,6.30
2023-01-19T06:46:07.438Z,6.17
2023-01-19T06:51:12.018Z,5.72
2023-01-19T06:56:15.330Z,6.70
2023-01-19T07:01:18.756Z,5.90
2023-01-19T07:06:23.366Z,6.57
2023-01-19T07:11:31.904Z,6.40
2023-01-19T07:16:36.260Z,6.60
2023-01-19T07:21:40.843Z,6.88
2023-01-19T07:26:44.085Z,6.60
2023-01-19T07:31:48.998Z,6.47
2023-01-19T07:36:53.646Z,7.50
2023-01-19T07:41:56.767Z,7.63
2023-01-19T07:47:00.302Z,8.70
2023-01-19T07:52:04.873Z,7.47
2023-01-19T07:57:07.992Z,7.27
2023-01-19T08:02:11.802Z,8.43
2023-01-19T08:07:16.545Z,8.30
2023-01-19T08:12:19.745Z,7.20
2023-01-19T08:17:22.875Z,7.15
2023-01-19T08:22:27.439Z,6.85
2023-01-19T08:27:31.399Z,6.90
2023-01-19T08:32:34.555Z,7.03
2023-01-19T08:37:39.112Z,7.25
2023-01-19T08:42:42.205Z,6.90
2023-01-19T08:47:45.548Z,6.85
2023-01-19T08:52:50.085Z,6.40
2023-01-19T08:57:54.061Z,5.73
2023-01-19T09:02:57.440Z,6.10
2023-01-19T09:08:02.986Z,5.75
2023-01-19T09:13:08.656Z,6.28
2023-01-19T09:18:13.863Z,6.40
2023-01-19T09:23:20.344Z,7.15
2023-01-19T09:28:23.808Z,7.30
2023-01-19T09:33:27.330Z,6.20
2023-01-19T09:38:33.217Z,5.82
2023-01-19T09:43:42.831Z,6.85
2023-01-19T09:48:48.832Z,7.15
2023-01-19T09:53:59.076Z,6.47
2023-01-19T09:59:04.833Z,6.88
2023-01-19T10:04:30.492Z,6.90
2023-01-19T10:14:46.660Z,5.90
2023-01-19T10:19:55.541Z,6.25
2023-01-19T10:25:06.053Z,6.00
2023-01-19T10:30:16.672Z,6.00
2023-01-19T10:35:24.651Z,6.25
2023-01-19T10:40:36.780Z,7.13
2023-01-19T10:45:39.995Z,7.35
2023-01-19T10:50:43.685Z,7.45
2023-01-19T10:55:48.322Z,6.90
2023-01-19T11:00:51.566Z,6.93
2023-01-19T11:05:54.745Z,7.80
2023-01-19T11:11:04.450Z,6.88
2023-01-19T11:16:16.072Z,7.30
2023-01-19T11:21:26.000Z,8.07
2023-01-19T11:26:34.138Z,8.52
2023-01-19T11:31:37.564Z,8.43
2023-01-19T11:36:40.701Z,6.57
2023-01-19T11:41:49.667Z,4.07
2023-01-19T11:46:57.524Z,5.93
2023-01-19T11:52:05.537Z,3.65
2023-01-19T11:57:15.170Z,3.42
2023-01-19T12:02:25.974Z,3.65
2023-01-19T12:07:35.073Z,3.00
2023-01-19T12:12:41.070Z,2.60
2023-01-19T12:17:48.786Z,2.08
2023-01-19T12:22:59.708Z,2.92
2023-01-19T12:28:05.055Z,2.33
2023-01-19T12:33:34.627Z,2.67
2023-01-19T12:38:44.362Z,2.00
2023-01-19T12:43:49.403Z,2.50
2023-01-19T12:48:53.627Z,2.63
2023-01-19T12:53:59.825Z,2.50
2023-01-19T12:59:06.289Z,2.55
2023-01-19T13:04:33.105Z,2.78
2023-01-19T13:09:38.314Z,2.20
2023-01-19T13:14:44.642Z,2.08
2023-01-19T13:19:55.124Z,2.45
2023-01-19T13:25:11.663Z,2.58
2023-01-19T13:30:20.964Z,1.95
2023-01-19T13:35:25.051Z,2.40
2023-01-19T13:40:37.017Z,2.90
2023-01-19T13:45:42.282Z,2.45
2023-01-19T13:50:58.533Z,1.75
2023-01-19T13:56:10.095Z,1.85
2023-01-19T14:01:26.134Z,1.77
2023-01-19T14:06:35.982Z,2.20
2023-01-19T14:11:39.868Z,1.90
2023-01-19T14:16:44.441Z,2.08
2023-01-19T14:21:47.574Z,2.25
2023-01-19T14:26:52.845Z,2.22
2023-01-19T14:32:15.564Z,1.90
2023-01-19T14:37:24.782Z,1.70
2023-01-19T14:42:30.591Z,1.60
2023-01-19T14:47:40.883Z,1.90
2023-01-19T14:52:49.970Z,1.55
2023-01-19T14:57:53.092Z,1.77
2023-01-19T15:02:57.627Z,1.85
2023-01-19T15:08:03.138Z,1.60
2023-01-19T15:13:06.315Z,1.80
2023-01-19T15:18:17.467Z,1.70
2023-01-19T15:23:20.614Z,1.77
2023-01-19T15:28:23.768Z,1.80
2023-01-19T15:33:30.674Z,1.33
2023-01-19T15:38:33.783Z,1.58
2023-01-19T15:43:36.923Z,1.70
2023-01-19T15:48:41.482Z,1.65
2023-01-19T15:53:45.602Z,2.00
2023-01-19T15:58:49.088Z,2.10
2023-01-19T16:03:53.652Z,2.72
2023-01-19T16:09:01.123Z,4.30
2023-01-19T16:14:04.440Z,1.90
2023-01-19T16:19:08.975Z,1.88
2023-01-19T16:24:12.131Z,1.52
2023-01-19T16:29:15.307Z,1.38
2023-01-19T16:34:19.853Z,1.38
2023-01-19T16:39:23.049Z,1.55
2023-01-19T16:44:26.266Z,1.35
2023-01-19T16:49:30.911Z,1.20
2023-01-19T16:54:34.406Z,1.25
2023-01-19T16:59:39.556Z,1.42
2023-01-19T17:04:44.140Z,1.70
2023-01-19T17:09:47.287Z,1.40
2023-01-19T17:14:50.414Z,1.90
2023-01-19T17:19:54.956Z,2.10
2023-01-19T17:24:58.063Z,1.92
2023-01-19T17:30:01.215Z,1.48
2023-01-19T17:35:06.433Z,1.98
2023-01-19T17:40:11.395Z,1.73
2023-01-19T17:45:14.810Z,2.15
2023-01-19T17:50:19.529Z,2.17
2023-01-19T17:55:22.643Z,2.10
2023-01-19T18:00:25.924Z,1.67
2023-01-19T18:05:30.540Z,2.03
2023-01-19T18:10:33.702Z,1.70
2023-01-19T18:15:36.840Z,1.95
2023-01-19T18:20:43.150Z,1.90
2023-01-19T18:25:46.308Z,2.20
2023-01-19T18:30:49.490Z,2.20
2023-01-19T18:35:54.088Z,2.50
2023-01-19T18:41:05.090Z,2.13
2023-01-19T18:46:08.770Z,1.58
2023-01-19T18:51:15.513Z,1.85
2023-01-19T18:56:18.687Z,1.63
2023-01-19T19:01:24.371Z,1.55
2023-01-19T19:06:29.254Z,1.90
2023-01-19T19:11:32.554Z,2.05
2023-01-19T19:16:38.583Z,1.95
2023-01-19T19:21:44.758Z,1.95
2023-01-19T19:26:47.914Z,1.58
2023-01-19T19:31:51.197Z,1.77
2023-01-19T19:36:55.742Z,1.55
2023-01-19T19:41:58.885Z,1.90
2023-01-19T19:47:02.133Z,1.70
2023-01-19T19:52:06.772Z,1.50
2023-01-19T19:57:10.136Z,1.40
2023-01-19T20:02:13.835Z,1.52
2023-01-19T20:07:18.438Z,1.80
2023-01-19T20:12:21.712Z,1.52
2023-01-19T20:17:24.951Z,1.67
2023-01-19T20:22:29.552Z,1.83
2023-01-19T20:27:32.829Z,2.08
2023-01-19T20:32:36.040Z,1.55
2023-01-19T20:37:40.699Z,1.42
2023-01-19T20:42:44.665Z,1.50
2023-01-19T20:47:47.942Z,1.70
2023-01-19T20:52:52.601Z,1.50
2023-01-19T20:57:55.852Z,1.80
2023-01-19T21:02:59.504Z,1.42
2023-01-19T21:08:06.077Z,1.50
2023-01-19T21:13:09.346Z,1.83
2023-01-19T21:18:12.587Z,1.60
2023-01-19T21:23:19.213Z,1.73
2023-01-19T21:28:23.168Z,1.65
2023-01-19T21:33:26.507Z,2.00
2023-01-19T21:38:31.181Z,2.20
2023-01-19T21:43:36.495Z,2.40
2023-01-19T21:48:39.744Z,2.88
2023-01-19T21:53:44.672Z,2.38
2023-01-19T21:58:47.996Z,2.30
2023-01-19T22:03:55.114Z,1.60
2023-01-19T22:09:00.961Z,2.10
2023-01-19T22:14:04.209Z,2.08
2023-01-19T22:19:08.441Z,1.80
2023-01-19T22:24:13.275Z,1.70
2023-01-19T22:29:16.535Z,2.08
2023-01-19T22:34:19.790Z,1.67
2023-01-19T22:39:24.498Z,1.35
2023-01-19T22:44:27.765Z,1.60
2023-01-19T22:49:31.235Z,1.92
2023-01-19T22:54:36.031Z,1.40
2023-01-19T22:59:39.301Z,1.40
2023-01-19T23:04:42.556Z,1.40
2023-01-19T23:09:47.172Z,1.33
2023-01-19T23:14:50.437Z,1.38
2023-01-19T23:19:53.712Z,1.27
2023-01-19T23:24:58.301Z,1.20
2023-01-19T23:30:01.566Z,1.10
2023-01-19T23:35:05.422Z,1.15
2023-01-19T23:40:11.482Z,1.20
2023-01-19T23:45:15.030Z,1.50
2023-01-19T23:50:19.661Z,1.70
2023-01-19T23:55:24.304Z,1.35
